Airfield :
LOGIN :

Register | Disclaimer

   EN    FR    IT 

 










Legend :    VFR   Marginal VFR   IFR   Intensive IFR   Very Intensive IFR
Visi :
Ceiling :
>= 8 km
>= 3000ft
5 to 8 km
1000 to 3000 ft
1500m to 5 km
500 to 1000 ft
800 to 1500m
200 to 500 ft
< 800m
< 200 ft
Symbols :   Thunderstorms  Fog  Heavy snow  Heavy precipitations  Wind > 20 kt
SIGMETs :     Misc.  Thunderstorms  Icing  Turbulence  Mountain Waves  Volcanic Ashes







- Airport Elevation : 659 ft
- IATA code : LGG


EBLG - Liège

CURRENT METAR :
  • 180350Z 25008KT 0500 R22L/1400U R22R/1500U R04R/1600U FZFG SCT001 BKN002 M00/M00 Q1017 TEMPO 0200 FZFG

EXPIRED METARs :
  • 180320Z 26009KT 4500 BR SCT001 BKN003 M00/M01 Q1017 BECMG 2000 BR
  • 180250Z 26007KT 5000 BR SCT002 BKN003 M00/M01 Q1016 BECMG 2000 BR
  • 180220Z 27006KT 6000 BKN003 M00/M01 Q1016 TEMPO BKN002
  • 180150Z 27008KT 7000 BKN003 00/M00 Q1016 TEMPO -SN BKN002
  • 180120Z 27008KT 7000 BKN003 00/M00 Q1015 TEMPO -SN BKN002
  • 180050Z 27008KT 7000 BKN003 00/M00 Q1015 TEMPO -SN BKN002

TAF COR TAF EBLG
Valid from the 18 at 00:00 until the 19 at 06:00 UTC


172320Z 1800/1906 25004KT 8000 SCT011
PROB30
TEMPO 1800/1801 1400 SHSN SHSNRAGS BKN004CB
TEMPO 1801/1811 1200 BR BKN003
PROB30
TEMPO 1801/1810 0100 FG BKN001
No reported NOTAMs for that airfield.



MET'MAP, your aeronautical weather chart ! - Copyright ORBIFLY December 2007 - Disclaimer

ORBIFLY MET'MAP TEAM :

Programming & Development : Alexandra Zaïnal
Concept & Development : Baudouin d'Aumeries
Co-Development & Prog : Marc-Olivier Méhu
Technical & hardware support : Manuel Goepfert

Contact : metmap@orbifly.com




SOURCES & CREDITS :

   NOAA